createdAt,value
2019-02-27T00:00:53.597Z,29.77
2019-02-27T00:03:28.867Z,31.40
2019-02-27T00:06:01.034Z,29.47
2019-02-27T00:08:34.553Z,28.77
2019-02-27T00:11:06.296Z,29.43
2019-02-27T00:13:38.801Z,29.50
2019-02-27T00:16:16.830Z,29.33
2019-02-27T00:18:47.429Z,31.10
2019-02-27T00:21:20.391Z,31.87
2019-02-27T00:23:51.803Z,29.73
2019-02-27T00:26:31.409Z,29.00
2019-02-27T00:29:03.923Z,29.90
2019-02-27T00:31:36.105Z,30.70
2019-02-27T00:34:08.008Z,30.57
2019-02-27T00:36:39.856Z,31.10
2019-02-27T00:39:11.006Z,30.47
2019-02-27T00:41:46.068Z,31.83
2019-02-27T00:44:17.519Z,32.67
2019-02-27T00:46:52.770Z,31.00
2019-02-27T00:49:23.562Z,30.33
2019-02-27T00:51:55.040Z,31.20
2019-02-27T00:54:28.962Z,33.70
2019-02-27T00:57:00.090Z,30.83
2019-02-27T00:59:33.100Z,32.43
2019-02-27T01:02:06.572Z,32.30
2019-02-27T01:04:38.175Z,32.03
2019-02-27T01:07:09.664Z,29.87
2019-02-27T01:09:41.083Z,32.47
2019-02-27T01:12:12.441Z,31.50
2019-02-27T01:14:45.002Z,31.37
2019-02-27T01:17:20.952Z,31.00
2019-02-27T01:19:52.438Z,31.93
2019-02-27T01:22:24.484Z,30.97
2019-02-27T01:24:56.741Z,31.23
2019-02-27T01:27:29.312Z,31.50
2019-02-27T01:30:04.074Z,31.53
2019-02-27T01:32:35.040Z,29.17
2019-02-27T01:35:10.008Z,29.83
2019-02-27T01:37:42.556Z,31.43
2019-02-27T01:40:20.369Z,29.20
2019-02-27T01:42:53.756Z,28.03
2019-02-27T01:45:24.997Z,28.53
2019-02-27T01:47:56.923Z,28.23
2019-02-27T01:50:31.124Z,27.85
2019-02-27T01:53:07.009Z,28.67
2019-02-27T01:55:36.975Z,26.40
2019-02-27T01:58:14.446Z,25.97
2019-02-27T02:00:47.535Z,26.83
2019-02-27T02:03:22.866Z,27.17
2019-02-27T02:05:58.770Z,28.93
2019-02-27T02:08:28.784Z,26.87
2019-02-27T02:11:02.321Z,27.83
2019-02-27T02:13:43.324Z,27.80
2019-02-27T02:16:24.059Z,25.97
2019-02-27T02:19:01.652Z,27.03
2019-02-27T02:21:45.167Z,26.53
2019-02-27T02:24:46.222Z,27.27
2019-02-27T02:27:20.984Z,24.93
2019-02-27T02:30:19.580Z,27.03
2019-02-27T02:33:09.266Z,26.10
2019-02-27T02:35:57.105Z,28.25
2019-02-27T02:38:56.313Z,26.07
2019-02-27T02:41:48.244Z,25.23
2019-02-27T02:44:31.987Z,26.10
2019-02-27T02:47:19.526Z,27.30
2019-02-27T02:50:17.392Z,28.30
2019-02-27T02:53:14.381Z,27.30
2019-02-27T02:55:49.910Z,26.52
2019-02-27T02:58:47.249Z,24.75
2019-02-27T03:01:25.105Z,28.00
2019-02-27T03:04:15.781Z,26.77
2019-02-27T03:06:56.048Z,26.57
2019-02-27T03:09:33.368Z,27.67
2019-02-27T03:12:16.734Z,26.60
2019-02-27T03:14:56.903Z,27.02
2019-02-27T03:17:43.308Z,27.45
2019-02-27T03:20:41.648Z,26.50
2019-02-27T03:23:41.198Z,27.90
2019-02-27T03:26:30.711Z,25.97
2019-02-27T03:29:22.620Z,26.12
2019-02-27T03:32:12.330Z,26.05
2019-02-27T03:35:11.946Z,25.30
2019-02-27T03:37:55.529Z,25.97
2019-02-27T03:40:45.096Z,26.60
2019-02-27T03:43:29.675Z,25.87
2019-02-27T03:46:26.468Z,25.97
2019-02-27T03:49:04.542Z,26.45
2019-02-27T03:51:51.941Z,26.45
2019-02-27T03:54:35.660Z,27.30
2019-02-27T03:57:26.356Z,26.70
2019-02-27T04:00:06.610Z,25.37
2019-02-27T04:03:08.555Z,27.50
2019-02-27T04:06:01.804Z,27.50
2019-02-27T04:08:57.561Z,26.07
2019-02-27T04:11:29.325Z,27.13
2019-02-27T04:14:04.691Z,26.15
2019-02-27T04:16:34.833Z,25.97
2019-02-27T04:19:06.758Z,26.60
2019-02-27T04:21:39.746Z,27.45
2019-02-27T04:24:11.873Z,27.42
2019-02-27T04:26:44.600Z,26.85
2019-02-27T04:29:16.034Z,27.07
2019-02-27T04:31:48.258Z,27.73
2019-02-27T04:34:20.516Z,28.83
2019-02-27T04:36:52.516Z,25.92
2019-02-27T04:39:24.793Z,27.58
2019-02-27T04:41:56.720Z,28.92
2019-02-27T04:44:28.747Z,27.52
2019-02-27T04:47:02.040Z,28.52
2019-02-27T04:49:40.435Z,26.25
2019-02-27T04:52:12.107Z,27.20
2019-02-27T04:54:43.488Z,26.77
2019-02-27T04:57:15.306Z,26.95
2019-02-27T04:59:46.321Z,28.40
2019-02-27T05:02:16.948Z,26.55
2019-02-27T05:04:49.372Z,27.90
2019-02-27T05:07:20.946Z,27.32
2019-02-27T05:09:52.728Z,26.33
2019-02-27T05:12:25.398Z,25.80
2019-02-27T05:15:00.938Z,26.93
2019-02-27T05:17:33.537Z,27.58
2019-02-27T05:20:12.466Z,25.55
2019-02-27T05:22:44.525Z,25.92
2019-02-27T05:25:19.385Z,24.75
2019-02-27T05:27:53.594Z,25.15
2019-02-27T05:30:26.874Z,24.55
2019-02-27T05:33:02.249Z,22.47
2019-02-27T05:35:38.198Z,23.03
2019-02-27T05:38:12.062Z,23.55
2019-02-27T05:40:44.454Z,23.23
2019-02-27T05:43:17.831Z,23.17
2019-02-27T05:45:50.263Z,23.43
2019-02-27T05:48:33.637Z,21.80
2019-02-27T05:51:10.642Z,23.63
2019-02-27T05:53:49.757Z,24.47
2019-02-27T05:56:21.373Z,22.43
2019-02-27T05:58:56.823Z,22.73
2019-02-27T06:01:32.950Z,24.00
2019-02-27T06:04:07.985Z,22.42
2019-02-27T06:06:44.980Z,21.68
2019-02-27T06:09:18.037Z,22.30
2019-02-27T06:11:49.947Z,23.02
2019-02-27T06:14:23.182Z,22.43
2019-02-27T06:16:57.041Z,22.20
2019-02-27T06:19:33.616Z,22.03
2019-02-27T06:22:09.237Z,20.93
2019-02-27T06:24:45.545Z,22.67
2019-02-27T06:27:21.282Z,22.47
2019-02-27T06:29:57.044Z,22.27
2019-02-27T06:32:32.420Z,21.33
2019-02-27T06:35:22.120Z,20.83
2019-02-27T06:37:57.089Z,21.63
2019-02-27T06:40:30.992Z,22.30
2019-02-27T06:43:04.273Z,20.87
2019-02-27T06:45:37.209Z,22.00
2019-02-27T06:48:11.649Z,21.60
2019-02-27T06:50:55.227Z,21.57
2019-02-27T06:53:49.901Z,21.03
2019-02-27T06:56:33.894Z,19.50
2019-02-27T06:59:06.462Z,22.17
2019-02-27T07:01:45.020Z,21.07
2019-02-27T07:04:23.170Z,21.23
2019-02-27T07:07:02.044Z,22.40
2019-02-27T07:09:35.581Z,21.33
2019-02-27T07:12:08.105Z,20.50
2019-02-27T07:18:41.660Z,21.27
2019-02-27T07:28:44.963Z,19.93
2019-02-27T07:31:34.687Z,20.50
2019-02-27T07:37:39.415Z,20.73
2019-02-27T07:40:13.098Z,20.37
2019-02-27T07:42:46.647Z,21.30
2019-02-27T07:49:48.236Z,20.23
2019-02-27T08:05:06.238Z,20.90
2019-02-27T08:07:37.554Z,20.47
2019-02-27T08:10:14.254Z,19.87
2019-02-27T08:12:46.181Z,19.33
2019-02-27T08:15:19.091Z,20.47
2019-02-27T08:17:51.011Z,21.73
2019-02-27T08:20:23.643Z,20.60
2019-02-27T08:22:57.809Z,21.63
2019-02-27T08:25:30.693Z,21.13
2019-02-27T08:28:03.426Z,21.80
2019-02-27T08:30:38.088Z,22.17
2019-02-27T08:33:09.099Z,20.47
2019-02-27T08:35:40.140Z,22.00
2019-02-27T08:38:12.795Z,19.63
2019-02-27T08:40:45.666Z,19.40
2019-02-27T08:43:18.484Z,19.27
2019-02-27T08:45:50.116Z,20.50
2019-02-27T08:48:21.745Z,20.43
2019-02-27T08:50:54.113Z,20.27
2019-02-27T08:53:26.796Z,20.53
2019-02-27T08:55:57.548Z,22.57
2019-02-27T08:58:34.966Z,21.87
2019-02-27T09:01:07.930Z,21.83
2019-02-27T09:03:39.103Z,22.57
2019-02-27T09:06:09.745Z,21.83
2019-02-27T09:08:43.169Z,22.07
2019-02-27T09:11:14.707Z,21.70
2019-02-27T09:13:46.076Z,21.63
2019-02-27T09:16:16.784Z,19.83
2019-02-27T09:18:48.506Z,20.97
2019-02-27T09:21:21.763Z,20.50
2019-02-27T09:23:52.962Z,21.10
2019-02-27T09:26:25.246Z,20.67
2019-02-27T09:28:56.452Z,20.27
2019-02-27T09:31:28.151Z,19.83
2019-02-27T09:34:00.226Z,21.33
2019-02-27T09:36:32.597Z,21.40
2019-02-27T09:39:04.875Z,20.87
2019-02-27T09:41:37.472Z,19.87
2019-02-27T09:44:08.198Z,19.50
2019-02-27T09:46:40.023Z,19.03
2019-02-27T09:49:12.199Z,19.97
2019-02-27T09:51:43.261Z,19.70
2019-02-27T09:54:15.042Z,19.77
2019-02-27T09:56:50.646Z,18.10
2019-02-27T09:59:34.558Z,18.83
2019-02-27T10:02:15.342Z,18.67
2019-02-27T10:19:02.208Z,19.73
2019-02-27T10:21:34.744Z,21.27
2019-02-27T10:24:05.988Z,20.43
2019-02-27T10:26:37.570Z,21.80
2019-02-27T10:29:10.944Z,20.93
2019-02-27T10:31:42.466Z,20.73
2019-02-27T10:35:41.478Z,21.03
2019-02-27T10:37:16.586Z,22.37
2019-02-27T10:39:51.112Z,22.73
2019-02-27T10:42:22.582Z,22.90
2019-02-27T10:44:53.669Z,23.57
2019-02-27T10:47:25.879Z,24.17
2019-02-27T10:50:01.625Z,26.57
2019-02-27T10:52:31.537Z,25.37
2019-02-27T10:55:03.479Z,27.73
2019-02-27T10:57:38.356Z,25.90
2019-02-27T11:00:16.969Z,23.40
2019-02-27T11:06:12.540Z,23.17
2019-02-27T11:08:45.278Z,23.43
2019-02-27T11:11:19.351Z,22.67
2019-02-27T11:13:55.412Z,21.37
2019-02-27T11:26:09.990Z,21.97
2019-02-27T11:28:47.355Z,21.33
2019-02-27T11:31:16.431Z,22.53
2019-02-27T11:33:48.093Z,21.13
2019-02-27T11:39:41.018Z,21.33
2019-02-27T11:42:11.588Z,21.67
2019-02-27T11:44:42.994Z,20.73
2019-02-27T11:47:23.247Z,22.20
2019-02-27T11:49:55.524Z,23.40
2019-02-27T11:52:28.859Z,24.20
2019-02-27T11:55:03.649Z,22.63
2019-02-27T11:57:40.257Z,24.57
2019-02-27T12:00:17.976Z,26.47
2019-02-27T12:02:55.886Z,26.00
2019-02-27T12:08:46.163Z,24.30
2019-02-27T12:11:20.434Z,26.33
2019-02-27T12:17:16.472Z,23.87
2019-02-27T12:19:47.675Z,24.17
2019-02-27T12:22:19.895Z,23.47
2019-02-27T12:24:53.470Z,24.83
2019-02-27T12:27:45.079Z,22.63
2019-02-27T12:29:56.134Z,24.60
2019-02-27T12:32:35.096Z,25.47
2019-02-27T12:35:10.842Z,26.00
2019-02-27T12:37:44.760Z,24.33
2019-02-27T12:40:18.430Z,25.33
2019-02-27T12:42:51.159Z,24.33
2019-02-27T12:45:25.872Z,24.07
2019-02-27T12:47:58.122Z,22.37
2019-02-27T12:50:33.118Z,23.03
2019-02-27T12:53:07.910Z,21.67
2019-02-27T12:55:40.840Z,21.63
2019-02-27T12:58:11.292Z,22.13
2019-02-27T13:00:46.662Z,22.93
2019-02-27T13:06:54.678Z,21.37
2019-02-27T13:09:27.284Z,22.27
2019-02-27T13:11:59.894Z,22.90
2019-02-27T13:14:33.283Z,22.07
2019-02-27T13:17:25.583Z,21.63
2019-02-27T13:20:00.014Z,23.03
2019-02-27T13:22:34.210Z,22.37
2019-02-27T13:25:06.266Z,23.07
2019-02-27T13:27:40.309Z,22.50
2019-02-27T13:30:15.357Z,21.57
2019-02-27T13:32:46.577Z,19.80
2019-02-27T13:35:20.047Z,21.03
2019-02-27T13:41:10.436Z,22.23
2019-02-27T13:47:16.876Z,21.23
2019-02-27T13:50:22.154Z,22.43
2019-02-27T13:52:53.713Z,21.73
2019-02-27T13:55:25.164Z,21.63
2019-02-27T14:01:21.512Z,21.27
2019-02-27T14:03:56.348Z,21.73
2019-02-27T14:13:46.501Z,19.97
2019-02-27T14:16:18.255Z,19.80
2019-02-27T14:18:50.827Z,19.97
2019-02-27T14:21:22.130Z,20.30
2019-02-27T14:23:53.388Z,20.60
2019-02-27T14:26:29.702Z,19.90
2019-02-27T14:29:09.122Z,19.37
2019-02-27T14:31:54.949Z,19.50
2019-02-27T14:34:43.814Z,19.20
2019-02-27T14:37:17.964Z,18.03
2019-02-27T14:39:51.913Z,19.97
2019-02-27T14:42:34.729Z,18.87
2019-02-27T14:48:31.016Z,19.70
2019-02-27T14:51:08.002Z,18.50
2019-02-27T14:54:01.204Z,18.03
2019-02-27T14:56:33.518Z,18.93
2019-02-27T14:59:08.176Z,17.13
2019-02-27T15:01:40.191Z,18.73
2019-02-27T15:04:12.497Z,18.83
2019-02-27T15:06:43.896Z,18.43
2019-02-27T15:09:15.910Z,18.13
2019-02-27T15:11:48.997Z,18.80
2019-02-27T15:14:32.776Z,18.50
2019-02-27T15:31:25.032Z,18.83
2019-02-27T15:33:57.116Z,21.53
2019-02-27T15:36:30.368Z,19.60
2019-02-27T15:42:08.576Z,20.03
2019-02-27T15:44:51.351Z,21.47
2019-02-27T15:47:22.277Z,21.50
2019-02-27T15:49:54.003Z,22.13
2019-02-27T15:52:34.107Z,22.27
2019-02-27T15:55:05.610Z,22.93
2019-02-27T15:57:36.667Z,22.83
2019-02-27T16:00:30.383Z,24.57
2019-02-27T16:03:01.163Z,23.80
2019-02-27T16:05:41.055Z,24.47
2019-02-27T16:08:12.394Z,23.00
2019-02-27T16:10:54.363Z,23.67
2019-02-27T16:13:21.762Z,24.10
2019-02-27T16:15:54.801Z,24.40
2019-02-27T16:18:26.922Z,24.70
2019-02-27T16:20:57.895Z,23.73
2019-02-27T16:23:28.927Z,26.60
2019-02-27T16:26:00.625Z,26.20
2019-02-27T16:28:32.099Z,27.43
2019-02-27T16:31:06.235Z,26.10
2019-02-27T16:33:38.472Z,25.57
2019-02-27T16:36:09.426Z,26.07
2019-02-27T16:38:41.666Z,25.60
2019-02-27T16:41:13.598Z,25.90
2019-02-27T16:43:47.737Z,26.70
2019-02-27T16:46:17.248Z,25.40
2019-02-27T16:48:49.299Z,25.57
2019-02-27T16:51:22.011Z,26.40
2019-02-27T16:53:54.695Z,26.80
2019-02-27T16:56:26.704Z,27.03
2019-02-27T16:58:59.312Z,26.20
2019-02-27T17:01:34.155Z,27.07
2019-02-27T17:04:14.251Z,27.70
2019-02-27T17:06:52.301Z,26.73
2019-02-27T17:09:29.897Z,25.30
2019-02-27T17:12:07.959Z,25.50
2019-02-27T17:15:14.248Z,26.97
2019-02-27T17:18:03.960Z,26.37
2019-02-27T17:20:35.887Z,26.03
2019-02-27T17:23:10.647Z,26.07
2019-02-27T17:25:39.552Z,25.67
2019-02-27T17:28:11.738Z,25.13
2019-02-27T17:30:42.991Z,25.80
2019-02-27T17:36:46.381Z,23.80
2019-02-27T17:39:30.406Z,24.63
2019-02-27T17:42:09.808Z,24.50
2019-02-27T17:44:42.866Z,24.53
2019-02-27T17:47:16.272Z,23.03
2019-02-27T17:49:52.852Z,22.73
2019-02-27T17:52:28.632Z,24.20
2019-02-27T17:55:06.697Z,24.20
2019-02-27T17:57:41.822Z,22.60
2019-02-27T18:00:28.592Z,23.87
2019-02-27T18:03:01.049Z,23.83
2019-02-27T18:05:32.400Z,23.97
2019-02-27T18:08:04.731Z,24.20
2019-02-27T18:10:37.657Z,23.00
2019-02-27T18:13:09.146Z,22.30
2019-02-27T18:15:40.879Z,23.60
2019-02-27T18:18:12.463Z,23.40
2019-02-27T18:20:44.344Z,24.07
2019-02-27T18:23:16.595Z,24.27
2019-02-27T18:25:49.396Z,25.03
2019-02-27T18:28:20.322Z,24.63
2019-02-27T18:30:53.790Z,23.33
2019-02-27T18:33:26.081Z,24.50
2019-02-27T18:36:04.319Z,23.40
2019-02-27T18:38:32.294Z,24.50
2019-02-27T18:41:03.987Z,24.40
2019-02-27T18:43:36.486Z,24.53
2019-02-27T18:46:07.921Z,24.07
2019-02-27T18:48:43.566Z,25.57
2019-02-27T18:51:12.958Z,25.60
2019-02-27T18:53:48.259Z,24.40
2019-02-27T18:56:21.354Z,26.17
2019-02-27T18:58:56.445Z,25.07
2019-02-27T19:01:29.554Z,25.00
2019-02-27T19:04:06.560Z,24.90
2019-02-27T19:06:37.070Z,24.90
2019-02-27T19:09:12.102Z,26.90
2019-02-27T19:11:47.456Z,25.73
2019-02-27T19:14:19.276Z,24.57
2019-02-27T19:16:54.895Z,24.80
2019-02-27T19:19:26.519Z,26.13
2019-02-27T19:21:59.660Z,26.97
2019-02-27T19:24:33.474Z,26.40
2019-02-27T19:27:07.408Z,26.00
2019-02-27T19:29:39.502Z,27.37
2019-02-27T19:32:11.680Z,25.50
2019-02-27T19:34:44.751Z,26.67
2019-02-27T19:37:17.045Z,27.07
2019-02-27T19:39:50.264Z,27.23
2019-02-27T19:42:22.580Z,26.47
2019-02-27T19:44:54.579Z,26.20
2019-02-27T19:47:26.471Z,27.27
2019-02-27T19:49:58.567Z,24.90
2019-02-27T19:52:31.420Z,27.93
2019-02-27T19:55:04.269Z,27.23
2019-02-27T19:57:35.899Z,26.30
2019-02-27T20:00:33.520Z,27.03
2019-02-27T20:03:02.392Z,26.90
2019-02-27T20:05:36.839Z,25.90
2019-02-27T20:08:10.867Z,28.10
2019-02-27T20:10:47.987Z,26.67
2019-02-27T20:13:24.756Z,27.97
2019-02-27T20:15:57.560Z,27.57
2019-02-27T20:18:31.340Z,27.27
2019-02-27T20:21:06.369Z,27.57
2019-02-27T20:23:43.923Z,26.40
2019-02-27T20:26:20.009Z,26.33
2019-02-27T20:28:52.251Z,25.17
2019-02-27T20:31:28.120Z,24.77
2019-02-27T20:34:02.921Z,26.30
2019-02-27T20:36:36.283Z,25.63
2019-02-27T20:39:09.982Z,25.17
2019-02-27T20:41:43.755Z,25.47
2019-02-27T20:44:17.345Z,25.50
2019-02-27T20:46:52.949Z,25.60
2019-02-27T20:49:26.930Z,26.57
2019-02-27T20:52:00.569Z,24.13
2019-02-27T20:54:32.503Z,25.47
2019-02-27T20:57:08.147Z,24.70
2019-02-27T20:59:38.681Z,25.83
2019-02-27T21:02:11.110Z,26.37
2019-02-27T21:04:44.476Z,26.27
2019-02-27T21:07:22.324Z,24.30
2019-02-27T21:09:50.340Z,25.83
2019-02-27T21:12:22.287Z,24.90
2019-02-27T21:14:55.108Z,25.30
2019-02-27T21:17:28.991Z,23.97
2019-02-27T21:20:00.993Z,25.70
2019-02-27T21:22:35.631Z,26.60
2019-02-27T21:25:12.055Z,24.80
2019-02-27T21:27:44.495Z,24.03
2019-02-27T21:30:23.381Z,23.90
2019-02-27T21:32:56.421Z,25.60
2019-02-27T21:35:29.916Z,26.30
2019-02-27T21:38:01.034Z,26.37
2019-02-27T21:40:33.365Z,27.13
2019-02-27T21:43:07.984Z,26.83
2019-02-27T21:45:39.153Z,27.90
2019-02-27T21:48:14.105Z,25.60
2019-02-27T21:50:47.680Z,29.40
2019-02-27T21:53:21.169Z,29.70
2019-02-27T21:55:53.939Z,29.90
2019-02-27T21:58:31.962Z,29.57
2019-02-27T22:01:02.795Z,29.60
2019-02-27T22:03:35.197Z,31.33
2019-02-27T22:06:09.959Z,31.23
2019-02-27T22:08:41.473Z,31.13
2019-02-27T22:11:13.239Z,30.73
2019-02-27T22:13:45.918Z,33.60
2019-02-27T22:16:17.661Z,32.33
2019-02-27T22:18:49.230Z,32.73
2019-02-27T22:21:21.953Z,32.70
2019-02-27T22:23:53.861Z,35.00
2019-02-27T22:26:25.413Z,34.80
2019-02-27T22:28:57.102Z,33.90
2019-02-27T22:31:28.660Z,34.63
2019-02-27T22:33:59.410Z,35.40
2019-02-27T22:36:31.316Z,35.73
2019-02-27T22:39:03.092Z,33.93
2019-02-27T22:41:33.669Z,36.47
2019-02-27T22:44:04.620Z,36.90
2019-02-27T22:46:36.411Z,34.83
2019-02-27T22:49:07.595Z,36.07
2019-02-27T22:51:39.101Z,36.50
2019-02-27T22:54:11.434Z,35.53
2019-02-27T22:56:42.636Z,35.23
2019-02-27T22:59:15.123Z,37.63
2019-02-27T23:01:50.667Z,38.13
2019-02-27T23:04:20.189Z,38.17
2019-02-27T23:06:52.294Z,39.27
2019-02-27T23:09:25.613Z,41.30
2019-02-27T23:11:57.255Z,39.47
2019-02-27T23:14:29.635Z,40.63
2019-02-27T23:17:01.333Z,40.03
2019-02-27T23:19:33.204Z,39.90
2019-02-27T23:22:05.666Z,41.83
2019-02-27T23:24:43.307Z,44.57
2019-02-27T23:27:11.558Z,43.70
2019-02-27T23:29:44.149Z,43.30
2019-02-27T23:32:16.706Z,43.97
2019-02-27T23:34:48.243Z,44.37
2019-02-27T23:37:19.356Z,43.80
2019-02-27T23:39:50.727Z,45.73
2019-02-27T23:42:23.410Z,44.87
2019-02-27T23:44:56.455Z,45.37
2019-02-27T23:47:28.693Z,43.70
2019-02-27T23:50:01.931Z,44.57
2019-02-27T23:52:33.038Z,43.33
2019-02-27T23:55:07.202Z,43.30
2019-02-27T23:57:40.177Z,46.03
